sensor_id;sensor_type;location;lat;lon;timestamp;pressure;altitude;pressure_sealevel;temperature;humidity
26376;BME280;30544;42.196;24.336;2023-11-19T00:00:35;98959.72;;;9.39;47.74
26376;BME280;30544;42.196;24.336;2023-11-19T00:03:02;98970.97;;;9.61;47.98
26376;BME280;30544;42.196;24.336;2023-11-19T00:05:31;98961.97;;;9.25;48.73
26376;BME280;30544;42.196;24.336;2023-11-19T00:07:57;98954.88;;;9.58;48.79
26376;BME280;30544;42.196;24.336;2023-11-19T00:10:24;98950.38;;;9.57;48.25
26376;BME280;30544;42.196;24.336;2023-11-19T00:12:51;98963.75;;;9.60;48.48
26376;BME280;30544;42.196;24.336;2023-11-19T00:15:17;98961.53;;;9.45;48.73
26376;BME280;30544;42.196;24.336;2023-11-19T00:17:44;98954.59;;;9.31;49.11
26376;BME280;30544;42.196;24.336;2023-11-19T00:20:11;98978.31;;;9.27;48.86
26376;BME280;30544;42.196;24.336;2023-11-19T00:22:40;98967.09;;;9.33;49.41
26376;BME280;30544;42.196;24.336;2023-11-19T00:25:07;98977.09;;;9.34;48.84
26376;BME280;30544;42.196;24.336;2023-11-19T00:27:33;98979.66;;;9.53;48.70
26376;BME280;30544;42.196;24.336;2023-11-19T00:30:00;98973.03;;;9.54;49.12
26376;BME280;30544;42.196;24.336;2023-11-19T00:32:28;98977.19;;;9.68;48.78
26376;BME280;30544;42.196;24.336;2023-11-19T00:34:54;98989.28;;;9.62;47.86
26376;BME280;30544;42.196;24.336;2023-11-19T00:37:21;98990.31;;;9.44;48.51
26376;BME280;30544;42.196;24.336;2023-11-19T00:39:49;98996.00;;;9.66;47.74
26376;BME280;30544;42.196;24.336;2023-11-19T00:42:17;98993.50;;;9.53;48.44
26376;BME280;30544;42.196;24.336;2023-11-19T00:44:43;98998.00;;;9.71;48.46
26376;BME280;30544;42.196;24.336;2023-11-19T00:47:10;99002.72;;;9.70;47.89
26376;BME280;30544;42.196;24.336;2023-11-19T00:49:37;98994.94;;;9.55;48.61
26376;BME280;30544;42.196;24.336;2023-11-19T00:52:03;98995.59;;;9.46;48.21
26376;BME280;30544;42.196;24.336;2023-11-19T00:54:31;99001.94;;;9.58;48.84
26376;BME280;30544;42.196;24.336;2023-11-19T00:56:59;98998.53;;;9.56;48.76
26376;BME280;30544;42.196;24.336;2023-11-19T00:59:26;99003.31;;;9.44;48.06
26376;BME280;30544;42.196;24.336;2023-11-19T01:01:53;98998.69;;;9.49;48.33
26376;BME280;30544;42.196;24.336;2023-11-19T01:04:21;99000.34;;;9.62;48.22
26376;BME280;30544;42.196;24.336;2023-11-19T01:06:49;98994.59;;;9.52;49.01
26376;BME280;30544;42.196;24.336;2023-11-19T01:09:16;99008.06;;;9.60;49.10
26376;BME280;30544;42.196;24.336;2023-11-19T01:11:42;99022.63;;;9.55;49.29
26376;BME280;30544;42.196;24.336;2023-11-19T01:14:10;99005.47;;;9.70;49.39
26376;BME280;30544;42.196;24.336;2023-11-19T01:16:36;98998.84;;;9.71;48.47
26376;BME280;30544;42.196;24.336;2023-11-19T01:19:03;99004.38;;;9.71;48.77
26376;BME280;30544;42.196;24.336;2023-11-19T01:21:30;99008.94;;;9.49;49.73
26376;BME280;30544;42.196;24.336;2023-11-19T01:23:57;99010.47;;;9.56;49.64
26376;BME280;30544;42.196;24.336;2023-11-19T01:26:23;99005.13;;;9.67;49.19
26376;BME280;30544;42.196;24.336;2023-11-19T01:28:50;99012.59;;;9.66;49.19
26376;BME280;30544;42.196;24.336;2023-11-19T01:31:19;99010.94;;;9.65;49.53
26376;BME280;30544;42.196;24.336;2023-11-19T01:33:45;99013.06;;;9.75;49.10
26376;BME280;30544;42.196;24.336;2023-11-19T01:36:12;99014.59;;;9.82;49.55
26376;BME280;30544;42.196;24.336;2023-11-19T01:38:39;99010.03;;;9.76;48.75
26376;BME280;30544;42.196;24.336;2023-11-19T01:41:05;99009.69;;;9.73;49.84
26376;BME280;30544;42.196;24.336;2023-11-19T01:43:35;99017.06;;;9.67;49.24
26376;BME280;30544;42.196;24.336;2023-11-19T01:46:03;99017.66;;;9.69;49.18
26376;BME280;30544;42.196;24.336;2023-11-19T01:48:32;99021.75;;;9.67;49.28
26376;BME280;30544;42.196;24.336;2023-11-19T01:50:59;99020.09;;;9.54;50.10
26376;BME280;30544;42.196;24.336;2023-11-19T01:53:26;99018.19;;;9.54;50.07
26376;BME280;30544;42.196;24.336;2023-11-19T01:55:54;99029.13;;;9.61;49.68
26376;BME280;30544;42.196;24.336;2023-11-19T01:58:20;99020.50;;;9.46;50.26
26376;BME280;30544;42.196;24.336;2023-11-19T02:00:47;99014.56;;;9.54;49.97
26376;BME280;30544;42.196;24.336;2023-11-19T02:03:14;99021.16;;;9.24;50.58
26376;BME280;30544;42.196;24.336;2023-11-19T02:05:42;99024.72;;;9.48;50.64
26376;BME280;30544;42.196;24.336;2023-11-19T02:08:08;99020.94;;;9.54;49.72
26376;BME280;30544;42.196;24.336;2023-11-19T02:10:35;99035.94;;;9.42;49.84
26376;BME280;30544;42.196;24.336;2023-11-19T02:13:02;99027.00;;;9.40;50.64
26376;BME280;30544;42.196;24.336;2023-11-19T02:15:30;99023.94;;;9.13;50.94
26376;BME280;30544;42.196;24.336;2023-11-19T02:17:57;99018.31;;;8.96;50.75
26376;BME280;30544;42.196;24.336;2023-11-19T02:20:23;99019.72;;;9.22;50.24
26376;BME280;30544;42.196;24.336;2023-11-19T02:22:52;99025.50;;;9.20;50.78
26376;BME280;30544;42.196;24.336;2023-11-19T02:25:20;99022.34;;;9.28;49.72
26376;BME280;30544;42.196;24.336;2023-11-19T02:27:52;99024.44;;;9.10;50.61
26376;BME280;30544;42.196;24.336;2023-11-19T02:30:21;99026.81;;;9.06;50.34
26376;BME280;30544;42.196;24.336;2023-11-19T02:32:51;99021.06;;;9.08;50.40
26376;BME280;30544;42.196;24.336;2023-11-19T02:35:18;99029.22;;;9.14;50.08
26376;BME280;30544;42.196;24.336;2023-11-19T02:37:44;99045.84;;;9.14;51.05
26376;BME280;30544;42.196;24.336;2023-11-19T02:40:11;99044.25;;;9.18;50.82
26376;BME280;30544;42.196;24.336;2023-11-19T02:42:38;99048.00;;;9.12;50.66
26376;BME280;30544;42.196;24.336;2023-11-19T02:45:07;99041.25;;;9.20;50.21
26376;BME280;30544;42.196;24.336;2023-11-19T02:47:39;99038.75;;;8.95;51.34
26376;BME280;30544;42.196;24.336;2023-11-19T02:50:06;99032.38;;;8.83;50.77
26376;BME280;30544;42.196;24.336;2023-11-19T02:52:39;99023.72;;;8.67;51.45
26376;BME280;30544;42.196;24.336;2023-11-19T02:55:06;99031.56;;;8.94;50.86
26376;BME280;30544;42.196;24.336;2023-11-19T02:57:35;99018.69;;;8.76;51.12
26376;BME280;30544;42.196;24.336;2023-11-19T03:00:01;99015.41;;;9.14;50.60
26376;BME280;30544;42.196;24.336;2023-11-19T03:02:38;99018.28;;;9.19;50.56
26376;BME280;30544;42.196;24.336;2023-11-19T03:05:09;99033.44;;;9.05;51.32
26376;BME280;30544;42.196;24.336;2023-11-19T03:07:35;99033.34;;;8.65;51.76
26376;BME280;30544;42.196;24.336;2023-11-19T03:10:02;99040.56;;;8.66;52.01
26376;BME280;30544;42.196;24.336;2023-11-19T03:12:30;99034.78;;;8.67;51.42
26376;BME280;30544;42.196;24.336;2023-11-19T03:14:57;99021.59;;;8.58;51.48
26376;BME280;30544;42.196;24.336;2023-11-19T03:17:23;99029.75;;;8.64;51.76
26376;BME280;30544;42.196;24.336;2023-11-19T03:19:51;99025.91;;;8.65;52.08
26376;BME280;30544;42.196;24.336;2023-11-19T03:22:18;99044.41;;;8.65;52.13
26376;BME280;30544;42.196;24.336;2023-11-19T03:24:46;99035.03;;;8.78;51.48
26376;BME280;30544;42.196;24.336;2023-11-19T03:27:12;99046.22;;;8.83;51.61
26376;BME280;30544;42.196;24.336;2023-11-19T03:29:39;99055.38;;;8.95;51.89
26376;BME280;30544;42.196;24.336;2023-11-19T03:32:05;99063.78;;;8.77;52.09
26376;BME280;30544;42.196;24.336;2023-11-19T03:34:32;99056.69;;;8.81;51.62
26376;BME280;30544;42.196;24.336;2023-11-19T03:36:59;99055.94;;;8.85;51.16
26376;BME280;30544;42.196;24.336;2023-11-19T03:39:26;99058.84;;;8.90;51.02
26376;BME280;30544;42.196;24.336;2023-11-19T03:41:53;99061.63;;;8.79;51.21
26376;BME280;30544;42.196;24.336;2023-11-19T03:44:19;99064.63;;;8.77;51.11
26376;BME280;30544;42.196;24.336;2023-11-19T03:46:46;99066.28;;;8.66;51.37
26376;BME280;30544;42.196;24.336;2023-11-19T03:49:13;99075.06;;;8.63;51.96
26376;BME280;30544;42.196;24.336;2023-11-19T03:51:39;99069.06;;;8.66;51.36
26376;BME280;30544;42.196;24.336;2023-11-19T03:54:07;99070.50;;;8.57;51.57
26376;BME280;30544;42.196;24.336;2023-11-19T03:56:34;99060.63;;;8.61;51.55
26376;BME280;30544;42.196;24.336;2023-11-19T03:59:00;99072.88;;;8.54;51.18
26376;BME280;30544;42.196;24.336;2023-11-19T04:01:27;99086.34;;;8.50;51.41
26376;BME280;30544;42.196;24.336;2023-11-19T04:03:54;99089.72;;;8.64;51.16
26376;BME280;30544;42.196;24.336;2023-11-19T04:06:21;99095.00;;;8.54;51.51
26376;BME280;30544;42.196;24.336;2023-11-19T04:08:47;99096.44;;;8.44;51.33
26376;BME280;30544;42.196;24.336;2023-11-19T04:11:16;99106.88;;;8.42;51.33
26376;BME280;30544;42.196;24.336;2023-11-19T04:13:42;99109.34;;;8.32;51.85
26376;BME280;30544;42.196;24.336;2023-11-19T04:16:09;99093.47;;;8.28;52.10
26376;BME280;30544;42.196;24.336;2023-11-19T04:18:35;99099.59;;;8.30;51.76
26376;BME280;30544;42.196;24.336;2023-11-19T04:21:05;99102.78;;;8.45;51.34
26376;BME280;30544;42.196;24.336;2023-11-19T04:23:31;99099.97;;;8.33;52.30
26376;BME280;30544;42.196;24.336;2023-11-19T04:25:58;99098.34;;;8.44;51.87
26376;BME280;30544;42.196;24.336;2023-11-19T04:28:26;99096.34;;;8.33;52.11
26376;BME280;30544;42.196;24.336;2023-11-19T04:30:52;99093.59;;;8.33;51.39
26376;BME280;30544;42.196;24.336;2023-11-19T04:33:19;99107.41;;;8.33;52.13
26376;BME280;30544;42.196;24.336;2023-11-19T04:35:45;99104.53;;;8.28;51.51
26376;BME280;30544;42.196;24.336;2023-11-19T04:38:12;99101.41;;;8.24;51.76
26376;BME280;30544;42.196;24.336;2023-11-19T04:40:38;99107.13;;;8.23;52.18
26376;BME280;30544;42.196;24.336;2023-11-19T04:43:05;99109.28;;;8.21;52.49
26376;BME280;30544;42.196;24.336;2023-11-19T04:45:33;99101.09;;;8.14;52.30
26376;BME280;30544;42.196;24.336;2023-11-19T04:48:00;99097.50;;;8.13;52.90
26376;BME280;30544;42.196;24.336;2023-11-19T04:50:26;99090.34;;;7.94;52.89
26376;BME280;30544;42.196;24.336;2023-11-19T04:52:53;99101.19;;;7.77;53.12
26376;BME280;30544;42.196;24.336;2023-11-19T04:55:20;99105.28;;;7.75;53.25
26376;BME280;30544;42.196;24.336;2023-11-19T04:57:47;99103.38;;;7.87;53.34
26376;BME280;30544;42.196;24.336;2023-11-19T05:00:14;99105.53;;;7.85;53.74
26376;BME280;30544;42.196;24.336;2023-11-19T05:02:42;99102.66;;;7.80;53.63
26376;BME280;30544;42.196;24.336;2023-11-19T05:05:08;99105.47;;;7.92;53.16
26376;BME280;30544;42.196;24.336;2023-11-19T05:07:35;99108.31;;;7.85;53.83
26376;BME280;30544;42.196;24.336;2023-11-19T05:10:01;99107.84;;;7.88;53.48
26376;BME280;30544;42.196;24.336;2023-11-19T05:12:31;99108.94;;;7.69;53.49
26376;BME280;30544;42.196;24.336;2023-11-19T05:14:57;99102.97;;;7.53;54.12
26376;BME280;30544;42.196;24.336;2023-11-19T05:17:24;99105.91;;;7.59;54.08
26376;BME280;30544;42.196;24.336;2023-11-19T05:19:52;99115.38;;;7.81;53.61
26376;BME280;30544;42.196;24.336;2023-11-19T05:22:18;99114.44;;;7.87;53.12
26376;BME280;30544;42.196;24.336;2023-11-19T05:24:45;99129.25;;;7.93;53.02
26376;BME280;30544;42.196;24.336;2023-11-19T05:27:13;99125.88;;;7.91;53.46
26376;BME280;30544;42.196;24.336;2023-11-19T05:29:40;99137.66;;;7.98;53.21
26376;BME280;30544;42.196;24.336;2023-11-19T05:32:07;99142.03;;;7.87;53.23
26376;BME280;30544;42.196;24.336;2023-11-19T05:34:33;99148.59;;;7.74;52.90
26376;BME280;30544;42.196;24.336;2023-11-19T05:37:01;99154.00;;;7.99;53.05
26376;BME280;30544;42.196;24.336;2023-11-19T05:39:27;99152.56;;;7.97;52.96
26376;BME280;30544;42.196;24.336;2023-11-19T05:41:54;99170.41;;;8.12;52.01
26376;BME280;30544;42.196;24.336;2023-11-19T05:44:21;99172.94;;;8.14;51.94
26376;BME280;30544;42.196;24.336;2023-11-19T05:46:47;99165.34;;;8.09;52.77
26376;BME280;30544;42.196;24.336;2023-11-19T05:49:14;99168.50;;;8.13;52.31
26376;BME280;30544;42.196;24.336;2023-11-19T05:51:40;99163.81;;;8.13;52.35
26376;BME280;30544;42.196;24.336;2023-11-19T05:54:09;99166.09;;;8.35;52.10
26376;BME280;30544;42.196;24.336;2023-11-19T05:56:36;99164.69;;;8.44;51.62
26376;BME280;30544;42.196;24.336;2023-11-19T05:59:03;99171.56;;;8.53;51.51
26376;BME280;30544;42.196;24.336;2023-11-19T06:01:32;99166.88;;;8.54;51.68
26376;BME280;30544;42.196;24.336;2023-11-19T06:03:58;99157.03;;;8.58;50.83
26376;BME280;30544;42.196;24.336;2023-11-19T06:06:26;99153.19;;;8.59;50.68
26376;BME280;30544;42.196;24.336;2023-11-19T06:08:52;99144.31;;;8.68;50.75
26376;BME280;30544;42.196;24.336;2023-11-19T06:11:21;99136.59;;;8.70;51.04
26376;BME280;30544;42.196;24.336;2023-11-19T06:13:48;99153.31;;;8.64;50.72
26376;BME280;30544;42.196;24.336;2023-11-19T06:16:16;99166.31;;;8.63;50.53
26376;BME280;30544;42.196;24.336;2023-11-19T06:18:42;99163.91;;;8.67;50.56
26376;BME280;30544;42.196;24.336;2023-11-19T06:21:09;99167.63;;;8.72;50.02
26376;BME280;30544;42.196;24.336;2023-11-19T06:23:36;99175.47;;;8.76;50.37
26376;BME280;30544;42.196;24.336;2023-11-19T06:26:03;99187.75;;;8.80;50.07
26376;BME280;30544;42.196;24.336;2023-11-19T06:28:31;99184.50;;;8.83;49.99
26376;BME280;30544;42.196;24.336;2023-11-19T06:30:58;99200.13;;;8.89;49.82
26376;BME280;30544;42.196;24.336;2023-11-19T06:33:24;99202.56;;;8.97;50.43
26376;BME280;30544;42.196;24.336;2023-11-19T06:35:52;99201.81;;;8.90;49.83
26376;BME280;30544;42.196;24.336;2023-11-19T06:38:19;99204.97;;;9.05;49.40
26376;BME280;30544;42.196;24.336;2023-11-19T06:40:46;99205.97;;;9.11;49.88
26376;BME280;30544;42.196;24.336;2023-11-19T06:43:12;99201.53;;;9.33;49.63
26376;BME280;30544;42.196;24.336;2023-11-19T06:45:40;99205.13;;;9.33;49.20
26376;BME280;30544;42.196;24.336;2023-11-19T06:48:07;99189.59;;;9.56;48.44
26376;BME280;30544;42.196;24.336;2023-11-19T06:50:33;99186.25;;;9.30;48.14
26376;BME280;30544;42.196;24.336;2023-11-19T06:53:00;99203.56;;;9.61;47.36
26376;BME280;30544;42.196;24.336;2023-11-19T06:55:26;99201.50;;;9.68;46.87
26376;BME280;30544;42.196;24.336;2023-11-19T06:57:53;99206.28;;;9.96;46.39
26376;BME280;30544;42.196;24.336;2023-11-19T07:00:19;99215.25;;;9.75;46.80
26376;BME280;30544;42.196;24.336;2023-11-19T07:02:47;99208.38;;;9.77;46.72
26376;BME280;30544;42.196;24.336;2023-11-19T07:05:14;99203.53;;;9.84;47.21
26376;BME280;30544;42.196;24.336;2023-11-19T07:07:41;99196.75;;;10.04;45.88
26376;BME280;30544;42.196;24.336;2023-11-19T07:10:08;99214.78;;;10.18;46.77
26376;BME280;30544;42.196;24.336;2023-11-19T07:12:34;99206.28;;;10.08;46.42
26376;BME280;30544;42.196;24.336;2023-11-19T07:15:01;99219.38;;;10.24;46.91
26376;BME280;30544;42.196;24.336;2023-11-19T07:17:28;99219.94;;;10.38;45.07
26376;BME280;30544;42.196;24.336;2023-11-19T07:19:56;99218.41;;;10.07;45.79
26376;BME280;30544;42.196;24.336;2023-11-19T07:22:24;99217.91;;;10.33;46.29
26376;BME280;30544;42.196;24.336;2023-11-19T07:24:51;99225.19;;;10.51;45.46
26376;BME280;30544;42.196;24.336;2023-11-19T07:27:18;99229.56;;;10.47;45.77
26376;BME280;30544;42.196;24.336;2023-11-19T07:29:45;99218.09;;;10.72;45.22
26376;BME280;30544;42.196;24.336;2023-11-19T07:32:11;99223.25;;;10.80;44.44
26376;BME280;30544;42.196;24.336;2023-11-19T07:34:38;99233.13;;;10.59;45.08
26376;BME280;30544;42.196;24.336;2023-11-19T07:37:06;99236.28;;;10.51;44.56
26376;BME280;30544;42.196;24.336;2023-11-19T07:39:33;99232.56;;;10.45;44.35
26376;BME280;30544;42.196;24.336;2023-11-19T07:42:00;99230.13;;;10.61;44.35
26376;BME280;30544;42.196;24.336;2023-11-19T07:44:26;99239.56;;;10.48;43.81
26376;BME280;30544;42.196;24.336;2023-11-19T07:46:53;99235.75;;;10.66;44.76
26376;BME280;30544;42.196;24.336;2023-11-19T07:49:19;99232.47;;;10.69;44.33
26376;BME280;30544;42.196;24.336;2023-11-19T07:51:46;99227.81;;;10.86;43.96
26376;BME280;30544;42.196;24.336;2023-11-19T07:54:14;99226.97;;;10.85;44.11
26376;BME280;30544;42.196;24.336;2023-11-19T07:56:40;99224.75;;;10.71;43.91
26376;BME280;30544;42.196;24.336;2023-11-19T07:59:07;99227.22;;;10.55;44.10
26376;BME280;30544;42.196;24.336;2023-11-19T08:01:33;99236.44;;;10.44;44.06
26376;BME280;30544;42.196;24.336;2023-11-19T08:04:00;99233.22;;;10.24;43.79
26376;BME280;30544;42.196;24.336;2023-11-19T08:06:27;99227.38;;;10.49;43.51
26376;BME280;30544;42.196;24.336;2023-11-19T08:08:53;99225.72;;;10.36;43.91
26376;BME280;30544;42.196;24.336;2023-11-19T08:11:21;99229.75;;;10.57;43.81
26376;BME280;30544;42.196;24.336;2023-11-19T08:13:47;99232.56;;;10.45;44.07
26376;BME280;30544;42.196;24.336;2023-11-19T08:16:14;99241.59;;;10.52;44.24
26376;BME280;30544;42.196;24.336;2023-11-19T08:18:41;99250.91;;;10.46;43.73
26376;BME280;30544;42.196;24.336;2023-11-19T08:21:08;99226.25;;;10.62;43.65
26376;BME280;30544;42.196;24.336;2023-11-19T08:23:35;99233.28;;;10.81;42.84
26376;BME280;30544;42.196;24.336;2023-11-19T08:26:05;99243.94;;;10.89;43.44
26376;BME280;30544;42.196;24.336;2023-11-19T08:28:33;99224.78;;;10.88;43.59
26376;BME280;30544;42.196;24.336;2023-11-19T08:31:00;99225.13;;;11.08;42.96
26376;BME280;30544;42.196;24.336;2023-11-19T08:33:26;99225.75;;;11.10;43.05
26376;BME280;30544;42.196;24.336;2023-11-19T08:35:53;99232.97;;;10.94;43.35
26376;BME280;30544;42.196;24.336;2023-11-19T08:38:19;99237.66;;;10.94;43.40
26376;BME280;30544;42.196;24.336;2023-11-19T08:40:46;99231.59;;;10.80;43.40
26376;BME280;30544;42.196;24.336;2023-11-19T08:43:13;99243.06;;;11.00;43.26
26376;BME280;30544;42.196;24.336;2023-11-19T08:45:41;99253.31;;;10.71;44.49
26376;BME280;30544;42.196;24.336;2023-11-19T08:48:07;99253.25;;;11.11;43.63
26376;BME280;30544;42.196;24.336;2023-11-19T08:50:34;99253.56;;;10.98;44.18
26376;BME280;30544;42.196;24.336;2023-11-19T08:53:00;99250.53;;;11.00;43.97
26376;BME280;30544;42.196;24.336;2023-11-19T08:55:27;99239.94;;;10.97;42.79
26376;BME280;30544;42.196;24.336;2023-11-19T08:57:53;99250.22;;;11.13;42.66
26376;BME280;30544;42.196;24.336;2023-11-19T09:00:20;99227.50;;;11.16;42.77
26376;BME280;30544;42.196;24.336;2023-11-19T09:02:48;99245.94;;;11.22;41.69
26376;BME280;30544;42.196;24.336;2023-11-19T09:05:14;99250.91;;;11.37;42.24
26376;BME280;30544;42.196;24.336;2023-11-19T09:07:40;99256.44;;;11.20;42.69
26376;BME280;30544;42.196;24.336;2023-11-19T09:10:07;99266.06;;;11.46;42.92
26376;BME280;30544;42.196;24.336;2023-11-19T09:12:34;99263.84;;;11.14;42.79
26376;BME280;30544;42.196;24.336;2023-11-19T09:15:01;99253.53;;;11.27;42.69
26376;BME280;30544;42.196;24.336;2023-11-19T09:17:28;99260.91;;;11.21;42.81
26376;BME280;30544;42.196;24.336;2023-11-19T09:19:56;99253.56;;;10.98;42.66
26376;BME280;30544;42.196;24.336;2023-11-19T09:22:22;99253.06;;;11.01;42.60
26376;BME280;30544;42.196;24.336;2023-11-19T09:24:49;99252.25;;;11.18;42.83
26376;BME280;30544;42.196;24.336;2023-11-19T09:27:15;99236.88;;;11.27;42.89
26376;BME280;30544;42.196;24.336;2023-11-19T09:29:42;99253.50;;;11.10;42.67
26376;BME280;30544;42.196;24.336;2023-11-19T09:32:11;99244.19;;;11.33;42.97
26376;BME280;30544;42.196;24.336;2023-11-19T09:34:37;99237.09;;;11.42;42.26
26376;BME280;30544;42.196;24.336;2023-11-19T09:37:05;99234.41;;;11.64;42.64
26376;BME280;30544;42.196;24.336;2023-11-19T09:39:31;99234.50;;;11.52;42.03
26376;BME280;30544;42.196;24.336;2023-11-19T09:41:58;99250.66;;;11.55;41.11
26376;BME280;30544;42.196;24.336;2023-11-19T09:44:24;99244.34;;;11.43;41.39
26376;BME280;30544;42.196;24.336;2023-11-19T09:46:51;99238.78;;;11.60;40.62
26376;BME280;30544;42.196;24.336;2023-11-19T09:49:19;99247.47;;;11.80;40.68
26376;BME280;30544;42.196;24.336;2023-11-19T09:51:47;99259.28;;;11.75;41.09
26376;BME280;30544;42.196;24.336;2023-11-19T09:54:15;99261.41;;;11.35;41.06
26376;BME280;30544;42.196;24.336;2023-11-19T09:56:41;99262.00;;;11.37;40.55
26376;BME280;30544;42.196;24.336;2023-11-19T09:59:09;99268.66;;;11.36;40.72
26376;BME280;30544;42.196;24.336;2023-11-19T10:01:37;99263.69;;;11.38;41.44
26376;BME280;30544;42.196;24.336;2023-11-19T10:04:04;99249.91;;;11.60;40.57
26376;BME280;30544;42.196;24.336;2023-11-19T10:06:31;99257.88;;;11.39;40.51
26376;BME280;30544;42.196;24.336;2023-11-19T10:08:58;99246.63;;;11.63;40.92
26376;BME280;30544;42.196;24.336;2023-11-19T10:11:26;99248.56;;;11.62;40.57
26376;BME280;30544;42.196;24.336;2023-11-19T10:13:53;99243.75;;;11.41;40.69
26376;BME280;30544;42.196;24.336;2023-11-19T10:16:19;99242.66;;;11.42;41.53
26376;BME280;30544;42.196;24.336;2023-11-19T10:18:46;99237.19;;;11.30;41.03
26376;BME280;30544;42.196;24.336;2023-11-19T10:21:14;99243.00;;;11.29;41.84
26376;BME280;30544;42.196;24.336;2023-11-19T10:23:48;99252.00;;;11.36;41.37
26376;BME280;30544;42.196;24.336;2023-11-19T10:26:16;99243.31;;;11.15;41.80
26376;BME280;30544;42.196;24.336;2023-11-19T10:28:45;99232.22;;;11.15;41.44
26376;BME280;30544;42.196;24.336;2023-11-19T10:31:12;99218.31;;;10.99;42.20
26376;BME280;30544;42.196;24.336;2023-11-19T10:33:39;99224.22;;;11.02;42.23
26376;BME280;30544;42.196;24.336;2023-11-19T10:36:06;99218.91;;;11.01;41.93
26376;BME280;30544;42.196;24.336;2023-11-19T10:38:32;99220.06;;;10.88;42.46
26376;BME280;30544;42.196;24.336;2023-11-19T10:41:02;99209.47;;;10.85;42.42
26376;BME280;30544;42.196;24.336;2023-11-19T10:43:29;99192.50;;;10.98;42.56
26376;BME280;30544;42.196;24.336;2023-11-19T10:46:08;99199.94;;;11.09;42.26
26376;BME280;30544;42.196;24.336;2023-11-19T10:48:35;99191.16;;;11.18;41.92
26376;BME280;30544;42.196;24.336;2023-11-19T10:51:01;99188.72;;;11.21;41.10
26376;BME280;30544;42.196;24.336;2023-11-19T10:53:31;99174.84;;;11.38;41.60
26376;BME280;30544;42.196;24.336;2023-11-19T10:55:59;99181.56;;;11.42;41.27
26376;BME280;30544;42.196;24.336;2023-11-19T10:58:28;99182.34;;;11.04;41.93
26376;BME280;30544;42.196;24.336;2023-11-19T11:00:55;99159.03;;;11.22;41.70
26376;BME280;30544;42.196;24.336;2023-11-19T11:03:25;99162.91;;;11.21;41.79
26376;BME280;30544;42.196;24.336;2023-11-19T11:05:52;99188.66;;;11.33;41.68
26376;BME280;30544;42.196;24.336;2023-11-19T11:08:19;99165.78;;;11.26;42.21
26376;BME280;30544;42.196;24.336;2023-11-19T11:10:47;99170.22;;;11.43;41.57
26376;BME280;30544;42.196;24.336;2023-11-19T11:13:16;99173.56;;;11.62;41.00
26376;BME280;30544;42.196;24.336;2023-11-19T11:15:43;99168.03;;;11.84;41.19
26376;BME280;30544;42.196;24.336;2023-11-19T11:18:12;99177.81;;;11.70;40.59
26376;BME280;30544;42.196;24.336;2023-11-19T11:20:40;99171.25;;;11.76;40.61
26376;BME280;30544;42.196;24.336;2023-11-19T11:25:50;99158.19;;;11.77;40.84
26376;BME280;30544;42.196;24.336;2023-11-19T11:28:24;99155.16;;;11.78;41.03
26376;BME280;30544;42.196;24.336;2023-11-19T11:31:09;99159.78;;;11.72;41.76
26376;BME280;30544;42.196;24.336;2023-11-19T11:33:41;99148.66;;;11.72;40.78
26376;BME280;30544;42.196;24.336;2023-11-19T11:36:20;99159.97;;;11.66;41.07
26376;BME280;30544;42.196;24.336;2023-11-19T11:38:48;99153.72;;;11.75;40.70
26376;BME280;30544;42.196;24.336;2023-11-19T11:41:15;99146.91;;;11.44;41.45
26376;BME280;30544;42.196;24.336;2023-11-19T11:43:44;99140.41;;;11.39;41.11
26376;BME280;30544;42.196;24.336;2023-11-19T11:48:52;99146.06;;;11.44;41.20
26376;BME280;30544;42.196;24.336;2023-11-19T11:51:22;99132.03;;;11.56;41.74
26376;BME280;30544;42.196;24.336;2023-11-19T11:54:09;99142.16;;;11.62;41.12
26376;BME280;30544;42.196;24.336;2023-11-19T11:56:36;99155.50;;;11.43;41.35
26376;BME280;30544;42.196;24.336;2023-11-19T11:59:03;99141.25;;;11.39;42.18
26376;BME280;30544;42.196;24.336;2023-11-19T12:01:31;99146.44;;;11.53;41.42
26376;BME280;30544;42.196;24.336;2023-11-19T12:03:57;99125.66;;;11.55;41.69
26376;BME280;30544;42.196;24.336;2023-11-19T12:06:26;99129.81;;;11.36;42.03
26376;BME280;30544;42.196;24.336;2023-11-19T12:08:52;99122.97;;;11.60;41.68
26376;BME280;30544;42.196;24.336;2023-11-19T12:11:19;99110.44;;;11.41;41.67
26376;BME280;30544;42.196;24.336;2023-11-19T12:13:47;99123.34;;;11.47;41.94
26376;BME280;30544;42.196;24.336;2023-11-19T12:16:14;99119.97;;;11.45;41.36
26376;BME280;30544;42.196;24.336;2023-11-19T12:18:41;99113.56;;;11.44;41.28
26376;BME280;30544;42.196;24.336;2023-11-19T12:21:08;99116.88;;;11.25;41.83
26376;BME280;30544;42.196;24.336;2023-11-19T12:23:43;99114.03;;;11.58;41.55
26376;BME280;30544;42.196;24.336;2023-11-19T12:26:20;99123.38;;;11.30;41.71
26376;BME280;30544;42.196;24.336;2023-11-19T12:28:56;99119.59;;;11.20;41.46
26376;BME280;30544;42.196;24.336;2023-11-19T12:31:23;99119.50;;;11.14;41.86
26376;BME280;30544;42.196;24.336;2023-11-19T12:33:50;99115.44;;;11.22;42.07
26376;BME280;30544;42.196;24.336;2023-11-19T12:36:17;99107.34;;;11.37;41.38
26376;BME280;30544;42.196;24.336;2023-11-19T12:38:45;99112.00;;;11.32;41.25
26376;BME280;30544;42.196;24.336;2023-11-19T12:41:12;99102.31;;;11.34;41.96
26376;BME280;30544;42.196;24.336;2023-11-19T12:43:42;99107.56;;;11.14;41.94
26376;BME280;30544;42.196;24.336;2023-11-19T12:46:16;99104.25;;;11.34;41.48
26376;BME280;30544;42.196;24.336;2023-11-19T12:48:44;99088.97;;;11.53;41.61
26376;BME280;30544;42.196;24.336;2023-11-19T12:51:11;99092.72;;;11.64;41.77
26376;BME280;30544;42.196;24.336;2023-11-19T12:53:48;99090.19;;;11.79;41.30
26376;BME280;30544;42.196;24.336;2023-11-19T12:56:15;99093.69;;;11.53;41.69
26376;BME280;30544;42.196;24.336;2023-11-19T12:58:42;99087.81;;;11.49;41.33
26376;BME280;30544;42.196;24.336;2023-11-19T13:01:09;99074.91;;;11.60;41.59